createdAt,value
2018-07-30T00:00:46.927Z,995.14
2018-07-30T00:01:46.965Z,995.14
2018-07-30T00:02:47.001Z,995.09
2018-07-30T00:03:47.038Z,995.13
2018-07-30T00:04:47.074Z,995.12
2018-07-30T00:05:47.114Z,995.12
2018-07-30T00:06:47.147Z,995.11
2018-07-30T00:07:47.183Z,995.09
2018-07-30T00:08:47.220Z,995.10
2018-07-30T00:09:47.257Z,995.12
2018-07-30T00:10:47.298Z,995.11
2018-07-30T00:11:47.330Z,995.13
2018-07-30T00:12:47.369Z,995.12
2018-07-30T00:13:47.402Z,995.09
2018-07-30T00:14:47.439Z,995.05
2018-07-30T00:15:47.476Z,995.10
2018-07-30T00:16:47.515Z,995.13
2018-07-30T00:17:47.549Z,995.14
2018-07-30T00:18:47.585Z,995.14
2018-07-30T00:19:47.622Z,995.15
2018-07-30T00:20:47.658Z,995.15
2018-07-30T00:21:47.694Z,995.17
2018-07-30T00:22:47.731Z,995.16
2018-07-30T00:23:47.767Z,995.13
2018-07-30T00:24:47.803Z,995.15
2018-07-30T00:25:47.840Z,995.15
2018-07-30T00:26:47.877Z,995.15
2018-07-30T00:27:47.913Z,995.15
2018-07-30T00:28:47.950Z,995.14
2018-07-30T00:29:47.986Z,995.15
2018-07-30T00:30:48.022Z,995.17
2018-07-30T00:31:48.059Z,995.19
2018-07-30T00:32:48.095Z,995.21
2018-07-30T00:33:48.132Z,995.19
2018-07-30T00:34:48.174Z,995.20
2018-07-30T00:35:48.205Z,995.21
2018-07-30T00:36:48.244Z,995.15
2018-07-30T00:37:48.277Z,995.19
2018-07-30T00:38:48.314Z,995.22
2018-07-30T00:39:48.351Z,995.21
2018-07-30T00:40:48.386Z,995.21
2018-07-30T00:41:48.424Z,995.21
2018-07-30T00:42:48.458Z,995.22
2018-07-30T00:43:48.497Z,995.21
2018-07-30T00:44:48.532Z,995.23
2018-07-30T00:45:48.568Z,995.24
2018-07-30T00:46:48.604Z,995.25
2018-07-30T00:47:48.641Z,995.24
2018-07-30T00:48:48.677Z,995.25
2018-07-30T00:49:48.713Z,995.26
2018-07-30T00:50:48.750Z,995.23
2018-07-30T00:51:48.786Z,995.24
2018-07-30T00:52:48.822Z,995.25
2018-07-30T00:53:48.858Z,995.23
2018-07-30T00:54:48.895Z,995.27
2018-07-30T00:55:48.931Z,995.27
2018-07-30T00:56:48.972Z,995.26
2018-07-30T00:57:49.407Z,995.26
2018-07-30T00:58:49.040Z,995.28
2018-07-30T00:59:49.077Z,995.27
2018-07-30T01:00:49.112Z,995.30
2018-07-30T01:01:49.149Z,995.28
2018-07-30T01:02:49.593Z,995.28
2018-07-30T01:03:49.423Z,995.26
2018-07-30T01:04:49.257Z,995.31
2018-07-30T01:05:49.294Z,995.28
2018-07-30T01:06:49.330Z,995.26
2018-07-30T01:07:49.366Z,995.31
2018-07-30T01:08:49.401Z,995.32
2018-07-30T01:09:49.437Z,995.28
2018-07-30T01:10:49.676Z,995.30
2018-07-30T01:11:49.510Z,995.28
2018-07-30T01:12:49.546Z,995.31
2018-07-30T01:13:49.582Z,995.31
2018-07-30T01:14:49.619Z,995.38
2018-07-30T01:15:49.654Z,995.42
2018-07-30T01:16:50.095Z,995.38
2018-07-30T01:17:49.726Z,995.42
2018-07-30T01:18:49.763Z,995.44
2018-07-30T01:19:49.799Z,995.47
2018-07-30T01:20:49.835Z,995.49
2018-07-30T01:21:49.871Z,995.54
2018-07-30T01:22:49.907Z,995.50
2018-07-30T01:23:49.948Z,995.52
2018-07-30T01:29:41.760Z,995.56
2018-07-30T01:30:41.800Z,995.57
2018-07-30T01:31:41.827Z,995.60
2018-07-30T01:32:41.865Z,995.58
2018-07-30T01:33:41.901Z,995.57
2018-07-30T01:34:41.937Z,995.55
2018-07-30T01:35:41.973Z,995.58
2018-07-30T01:37:24.560Z,995.57
2018-07-30T01:38:24.594Z,995.59
2018-07-30T01:39:24.631Z,995.62
2018-07-30T01:40:24.666Z,995.58
2018-07-30T01:41:24.702Z,995.62
2018-07-30T01:42:24.738Z,995.61
2018-07-30T01:43:24.780Z,995.62
2018-07-30T01:45:07.360Z,995.61
2018-07-30T01:46:07.397Z,995.66
2018-07-30T01:47:07.432Z,995.60
2018-07-30T01:48:07.467Z,995.59
2018-07-30T01:49:07.504Z,995.61
2018-07-30T01:50:07.542Z,995.61
2018-07-30T01:51:07.579Z,995.63
2018-07-30T01:52:07.611Z,995.63
2018-07-30T01:53:07.648Z,995.62
2018-07-30T01:54:07.683Z,995.59
2018-07-30T01:55:07.720Z,995.60
2018-07-30T01:56:07.754Z,995.62
2018-07-30T01:57:07.791Z,995.65
2018-07-30T01:58:07.826Z,995.66
2018-07-30T01:59:07.864Z,995.65
2018-07-30T02:00:07.900Z,995.61
2018-07-30T02:01:07.935Z,995.63
2018-07-30T02:04:38.872Z,995.62
2018-07-30T02:05:39.132Z,995.66
2018-07-30T02:06:38.964Z,995.62
2018-07-30T02:07:38.997Z,995.64
2018-07-30T02:08:39.036Z,995.62
2018-07-30T02:09:39.073Z,995.63
2018-07-30T02:10:39.105Z,995.66
2018-07-30T02:11:39.345Z,995.65
2018-07-30T02:12:39.386Z,995.65
2018-07-30T02:14:39.856Z,995.65
2018-07-30T02:15:39.287Z,995.68
2018-07-30T02:27:11.138Z,995.73
2018-07-30T02:28:11.170Z,995.71
2018-07-30T02:29:11.535Z,995.72
2018-07-30T02:30:11.241Z,995.73
2018-07-30T02:31:11.278Z,995.77
2018-07-30T02:32:11.313Z,995.73
2018-07-30T02:33:11.348Z,995.71
2018-07-30T02:34:11.383Z,995.76
2018-07-30T02:35:11.421Z,995.77
2018-07-30T02:36:11.454Z,995.77
2018-07-30T02:37:11.491Z,995.75
2018-07-30T02:38:11.526Z,995.81
2018-07-30T02:39:11.564Z,995.76
2018-07-30T02:40:11.598Z,995.77
2018-07-30T02:41:11.633Z,995.77
2018-07-30T02:42:11.668Z,995.79
2018-07-30T02:43:11.704Z,995.74
2018-07-30T02:44:11.743Z,995.79
2018-07-30T02:45:11.775Z,995.78
2018-07-30T02:46:11.810Z,995.77
2018-07-30T02:47:11.846Z,995.79
2018-07-30T02:48:11.882Z,995.77
2018-07-30T02:49:11.916Z,995.77
2018-07-30T02:50:11.952Z,995.77
2018-07-30T02:51:11.993Z,995.77
2018-07-30T02:52:12.023Z,995.77
2018-07-30T02:53:12.057Z,995.78
2018-07-30T02:54:12.095Z,995.79
2018-07-30T02:55:12.130Z,995.80
2018-07-30T02:56:12.164Z,995.78
2018-07-30T02:57:12.199Z,995.79
2018-07-30T02:58:12.235Z,995.80
2018-07-30T02:59:12.270Z,995.80
2018-07-30T03:00:12.306Z,995.79
2018-07-30T03:01:12.340Z,995.78
2018-07-30T03:02:12.377Z,995.78
2018-07-30T03:03:12.410Z,995.76
2018-07-30T03:04:12.447Z,995.77
2018-07-30T03:05:12.483Z,995.77
2018-07-30T03:06:12.518Z,995.79
2018-07-30T03:07:12.554Z,995.77
2018-07-30T03:08:12.591Z,995.78
2018-07-30T03:09:12.624Z,995.79
2018-07-30T03:10:12.663Z,995.81
2018-07-30T03:11:12.695Z,995.80
2018-07-30T03:12:12.730Z,995.79
2018-07-30T03:13:12.764Z,995.82
2018-07-30T03:14:12.801Z,995.79
2018-07-30T03:15:12.838Z,995.83
2018-07-30T03:16:12.870Z,995.83
2018-07-30T03:17:12.906Z,995.85
2018-07-30T03:18:12.945Z,995.84
2018-07-30T03:19:12.978Z,995.85
2018-07-30T03:20:13.011Z,995.85
2018-07-30T03:21:13.049Z,995.83
2018-07-30T03:22:13.083Z,995.89
2018-07-30T03:23:13.119Z,995.92
2018-07-30T03:24:13.152Z,995.93
2018-07-30T03:25:13.189Z,995.87
2018-07-30T03:26:13.223Z,995.88
2018-07-30T03:27:13.260Z,995.88
2018-07-30T03:28:13.297Z,995.86
2018-07-30T03:29:13.329Z,995.90
2018-07-30T03:30:13.365Z,995.88
2018-07-30T03:31:13.401Z,995.88
2018-07-30T03:32:13.638Z,995.88
2018-07-30T03:33:13.470Z,995.89
2018-07-30T03:34:13.507Z,995.91
2018-07-30T03:35:13.541Z,995.88
2018-07-30T03:36:13.580Z,995.92
2018-07-30T03:37:13.612Z,995.89
2018-07-30T03:38:13.647Z,995.92
2018-07-30T03:39:13.683Z,995.93
2018-07-30T03:40:13.716Z,995.91
2018-07-30T03:41:13.751Z,995.94
2018-07-30T03:42:13.824Z,995.93
2018-07-30T03:43:13.827Z,995.95
2018-07-30T03:44:13.858Z,995.92
2018-07-30T03:45:13.893Z,995.97
2018-07-30T03:46:13.928Z,995.94
2018-07-30T03:47:13.964Z,995.97
2018-07-30T03:48:13.999Z,995.96
2018-07-30T03:49:14.032Z,995.94
2018-07-30T03:50:14.069Z,995.94
2018-07-30T03:51:14.105Z,995.98
2018-07-30T03:52:14.138Z,996.00
2018-07-30T03:53:14.173Z,996.00
2018-07-30T03:54:14.210Z,996.01
2018-07-30T03:55:14.244Z,996.00
2018-07-30T03:56:14.281Z,996.02
2018-07-30T03:57:14.314Z,996.02
2018-07-30T03:58:14.351Z,996.02
2018-07-30T03:59:14.384Z,996.02
2018-07-30T04:00:14.647Z,996.02
2018-07-30T04:01:14.455Z,996.04
2018-07-30T04:02:14.491Z,996.05
2018-07-30T04:03:14.526Z,996.08
2018-07-30T04:04:14.560Z,996.07
2018-07-30T04:05:14.595Z,996.08
2018-07-30T04:06:14.710Z,996.09
2018-07-30T04:07:14.666Z,996.12
2018-07-30T04:08:14.699Z,996.09
2018-07-30T04:09:14.737Z,996.14
2018-07-30T04:10:14.770Z,996.09
2018-07-30T04:11:14.806Z,996.12
2018-07-30T04:12:14.843Z,996.11
2018-07-30T04:13:14.876Z,996.08
2018-07-30T04:14:14.913Z,996.08
2018-07-30T04:15:14.952Z,996.12
2018-07-30T04:16:14.981Z,996.10
2018-07-30T04:17:15.018Z,996.16
2018-07-30T04:18:15.051Z,996.12
2018-07-30T04:19:15.089Z,996.09
2018-07-30T04:20:15.122Z,996.10
2018-07-30T04:21:15.157Z,996.09
2018-07-30T04:22:15.252Z,996.09
2018-07-30T04:23:15.227Z,996.10
2018-07-30T04:24:15.262Z,996.09
2018-07-30T04:25:15.297Z,996.11
2018-07-30T04:26:15.332Z,996.10
2018-07-30T04:27:15.366Z,996.12
2018-07-30T04:28:15.401Z,996.15
2018-07-30T04:29:15.436Z,996.12
2018-07-30T04:30:15.477Z,996.16
2018-07-30T04:31:15.511Z,996.16
2018-07-30T04:32:15.543Z,996.16
2018-07-30T04:33:15.576Z,996.17
2018-07-30T04:34:15.612Z,996.18
2018-07-30T04:35:15.647Z,996.16
2018-07-30T04:36:15.685Z,996.17
2018-07-30T04:37:15.717Z,996.17
2018-07-30T04:38:15.755Z,996.17
2018-07-30T04:39:15.788Z,996.17
2018-07-30T04:40:15.822Z,996.16
2018-07-30T04:41:15.858Z,996.16
2018-07-30T04:42:15.892Z,996.17
2018-07-30T04:43:15.928Z,996.21
2018-07-30T04:44:15.964Z,996.21
2018-07-30T04:45:15.998Z,996.21
2018-07-30T04:46:16.034Z,996.24
2018-07-30T04:47:16.069Z,996.22
2018-07-30T04:48:16.104Z,996.18
2018-07-30T04:49:16.187Z,996.23
2018-07-30T04:50:16.263Z,996.23
2018-07-30T04:51:16.210Z,996.24
2018-07-30T04:52:16.244Z,996.23
2018-07-30T04:53:16.281Z,996.23
2018-07-30T04:54:16.315Z,996.24
2018-07-30T04:55:16.352Z,996.26
2018-07-30T04:56:16.385Z,996.22
2018-07-30T04:57:16.424Z,996.23
2018-07-30T04:58:16.455Z,996.18
2018-07-30T04:59:16.492Z,996.19
2018-07-30T05:00:16.527Z,996.19
2018-07-30T05:01:16.563Z,996.16
2018-07-30T05:02:16.598Z,996.22
2018-07-30T05:03:16.633Z,996.21
2018-07-30T05:04:16.667Z,996.19
2018-07-30T05:05:16.703Z,996.21
2018-07-30T05:06:16.738Z,996.23
2018-07-30T05:07:16.773Z,996.25
2018-07-30T05:08:16.809Z,996.24
2018-07-30T05:09:16.844Z,996.29
2018-07-30T05:10:16.881Z,996.30
2018-07-30T05:11:16.953Z,996.32
2018-07-30T05:12:16.952Z,996.27
2018-07-30T05:13:16.987Z,996.26
2018-07-30T05:14:17.023Z,996.28
2018-07-30T05:15:17.061Z,996.29
2018-07-30T05:16:17.095Z,996.27
2018-07-30T05:17:17.128Z,996.30
2018-07-30T05:18:17.165Z,996.33
2018-07-30T05:19:17.220Z,996.33
2018-07-30T05:20:17.236Z,996.34
2018-07-30T05:21:17.272Z,996.36
2018-07-30T05:22:17.308Z,996.32
2018-07-30T05:23:17.345Z,996.33
2018-07-30T05:24:17.378Z,996.30
2018-07-30T05:25:17.415Z,996.35
2018-07-30T05:26:17.451Z,996.32
2018-07-30T05:27:17.489Z,996.35
2018-07-30T05:28:17.521Z,996.37
2018-07-30T05:29:17.560Z,996.39
2018-07-30T05:30:17.594Z,996.38
2018-07-30T05:31:17.632Z,996.35
2018-07-30T05:32:17.667Z,996.37
2018-07-30T05:33:17.703Z,996.34
2018-07-30T05:34:17.739Z,996.34
2018-07-30T05:35:17.781Z,996.39
2018-07-30T05:36:17.810Z,996.41
2018-07-30T05:37:17.895Z,996.40
2018-07-30T05:38:17.883Z,996.37
2018-07-30T05:39:17.922Z,996.41
2018-07-30T05:40:17.954Z,996.41
2018-07-30T05:41:17.992Z,996.47
2018-07-30T05:42:18.028Z,996.46
2018-07-30T05:43:18.065Z,996.46
2018-07-30T05:44:18.102Z,996.50
2018-07-30T05:45:18.137Z,996.46
2018-07-30T05:46:18.174Z,996.46
2018-07-30T05:47:18.210Z,996.41
2018-07-30T05:48:18.247Z,996.40
2018-07-30T05:49:18.283Z,996.45
2018-07-30T05:50:18.322Z,996.42
2018-07-30T05:51:18.355Z,996.47
2018-07-30T05:52:18.395Z,996.45
2018-07-30T05:53:18.428Z,996.49
2018-07-30T05:54:18.466Z,996.47
2018-07-30T05:55:18.505Z,996.48
2018-07-30T05:56:18.538Z,996.51
2018-07-30T05:57:18.580Z,996.51
2018-07-30T05:58:18.612Z,996.55
2018-07-30T05:59:18.665Z,996.54
2018-07-30T06:00:18.687Z,996.53
2018-07-30T06:01:18.723Z,996.55
2018-07-30T06:02:18.759Z,996.53
2018-07-30T06:03:18.795Z,996.53
2018-07-30T06:04:18.834Z,996.55
2018-07-30T06:05:18.873Z,996.51
2018-07-30T06:06:18.907Z,996.50
2018-07-30T06:07:18.944Z,996.49
2018-07-30T06:08:18.981Z,996.48
2018-07-30T06:09:19.017Z,996.51
2018-07-30T06:10:19.143Z,996.52
2018-07-30T06:11:19.092Z,996.53
2018-07-30T06:12:19.127Z,996.53
2018-07-30T06:13:19.165Z,996.58
2018-07-30T06:14:19.207Z,996.57
2018-07-30T06:15:19.246Z,996.56
2018-07-30T06:16:19.277Z,996.62
2018-07-30T06:17:19.315Z,996.61
2018-07-30T06:18:19.352Z,996.61
2018-07-30T06:19:19.389Z,996.58
2018-07-30T06:20:19.425Z,996.62
2018-07-30T06:21:19.464Z,996.62
2018-07-30T06:22:19.501Z,996.57
2018-07-30T06:23:19.539Z,996.58
2018-07-30T06:24:19.575Z,996.57
2018-07-30T06:25:19.611Z,996.53
2018-07-30T06:26:19.699Z,996.54
2018-07-30T06:27:19.739Z,996.58
2018-07-30T06:28:19.767Z,996.53
2018-07-30T06:29:19.764Z,996.56
2018-07-30T06:30:19.800Z,996.54
2018-07-30T06:31:19.840Z,996.53
2018-07-30T06:32:19.875Z,996.54
2018-07-30T06:33:19.914Z,996.57
2018-07-30T06:34:19.951Z,996.57
2018-07-30T06:35:19.990Z,996.54
2018-07-30T06:36:20.026Z,996.53
2018-07-30T06:37:20.065Z,996.53
2018-07-30T06:38:20.141Z,996.54
2018-07-30T06:39:20.141Z,996.56
2018-07-30T06:40:20.179Z,996.54
2018-07-30T06:41:20.215Z,996.50
2018-07-30T06:42:20.254Z,996.52
2018-07-30T06:44:20.331Z,996.50
2018-07-30T06:45:20.368Z,996.49
2018-07-30T06:46:20.427Z,996.44
2018-07-30T06:47:20.670Z,996.50
2018-07-30T06:48:20.988Z,996.46
2018-07-30T06:51:20.600Z,996.47
2018-07-30T06:52:20.653Z,996.48
2018-07-30T06:53:20.729Z,996.47
2018-07-30T06:54:20.731Z,996.48
2018-07-30T06:55:20.750Z,996.48
2018-07-30T06:56:20.789Z,996.45
2018-07-30T06:57:20.849Z,996.47
2018-07-30T06:58:20.887Z,996.48
2018-07-30T06:59:20.923Z,996.52
2018-07-30T07:00:20.941Z,996.41
2018-07-30T07:01:21.002Z,996.44
2018-07-30T07:02:21.043Z,996.41
2018-07-30T07:03:21.156Z,996.44
2018-07-30T07:04:21.098Z,996.46
2018-07-30T07:05:21.136Z,996.42
2018-07-30T07:06:21.175Z,996.46
2018-07-30T07:07:21.212Z,996.47
2018-07-30T07:08:21.250Z,996.47
2018-07-30T07:09:21.290Z,996.47
2018-07-30T07:10:21.329Z,996.44
2018-07-30T07:11:21.368Z,996.45
2018-07-30T07:12:21.406Z,996.44
2018-07-30T07:13:21.445Z,996.43
2018-07-30T07:14:21.484Z,996.46
2018-07-30T07:15:21.524Z,996.46
2018-07-30T07:16:21.562Z,996.48
2018-07-30T07:17:21.601Z,996.46
2018-07-30T07:18:21.653Z,996.50
2018-07-30T07:19:21.681Z,996.49
2018-07-30T07:20:21.742Z,996.45
2018-07-30T07:21:21.806Z,996.44
2018-07-30T07:22:21.821Z,996.44
2018-07-30T07:23:21.839Z,996.45
2018-07-30T07:24:21.877Z,996.46
2018-07-30T07:25:21.942Z,996.48
2018-07-30T07:26:21.955Z,996.46
2018-07-30T07:27:21.996Z,996.47
2018-07-30T07:28:22.035Z,996.45
2018-07-30T07:29:22.075Z,996.46
2018-07-30T07:30:22.115Z,996.40
2018-07-30T07:31:22.153Z,996.45
2018-07-30T07:32:22.193Z,996.44
2018-07-30T07:33:22.235Z,996.48
2018-07-30T07:34:22.273Z,996.44
2018-07-30T07:35:22.314Z,996.43
2018-07-30T07:36:22.351Z,996.49
2018-07-30T07:37:22.391Z,996.45
2018-07-30T07:38:22.433Z,996.44
2018-07-30T07:39:22.473Z,996.47
2018-07-30T07:40:22.539Z,996.44
2018-07-30T07:41:22.552Z,996.43
2018-07-30T07:42:22.597Z,996.43
2018-07-30T07:43:22.633Z,996.45
2018-07-30T07:44:22.672Z,996.44
2018-07-30T07:45:22.714Z,996.44
2018-07-30T07:46:22.841Z,996.44
2018-07-30T07:47:22.800Z,996.46
2018-07-30T07:48:22.834Z,996.41
2018-07-30T07:49:22.875Z,996.40
2018-07-30T07:50:23.163Z,996.41
2018-07-30T07:51:22.961Z,996.43
2018-07-30T07:52:23.005Z,996.43
2018-07-30T07:53:23.038Z,996.43
2018-07-30T07:54:23.078Z,996.45
2018-07-30T07:55:23.121Z,996.46
2018-07-30T07:56:23.159Z,996.46
2018-07-30T07:57:23.216Z,996.49
2018-07-30T07:58:23.240Z,996.51
2018-07-30T07:59:23.282Z,996.49
2018-07-30T08:00:23.322Z,996.47
2018-07-30T08:01:23.384Z,996.49
2018-07-30T08:02:23.404Z,996.50
2018-07-30T08:03:23.445Z,996.47
2018-07-30T08:04:23.485Z,996.50
2018-07-30T08:05:23.530Z,996.49
2018-07-30T08:06:23.569Z,996.49
2018-07-30T08:07:23.609Z,996.53
2018-07-30T08:08:23.648Z,996.51
2018-07-30T08:09:23.691Z,996.58
2018-07-30T08:10:23.732Z,996.53
2018-07-30T08:11:23.772Z,996.54
2018-07-30T08:12:23.813Z,996.57
2018-07-30T08:13:23.855Z,996.55
2018-07-30T08:14:23.895Z,996.56
2018-07-30T08:15:24.363Z,996.54
2018-07-30T08:16:24.042Z,996.57
2018-07-30T08:17:24.019Z,996.55
2018-07-30T08:18:24.061Z,996.56
2018-07-30T08:19:24.102Z,996.56
2018-07-30T08:20:24.144Z,996.53
2018-07-30T08:21:24.183Z,996.58
2018-07-30T08:22:24.257Z,996.57
2018-07-30T08:23:24.270Z,996.57
2018-07-30T08:24:24.308Z,996.60
2018-07-30T08:25:24.351Z,996.61
2018-07-30T08:26:24.392Z,996.62
2018-07-30T08:27:24.432Z,996.66
2018-07-30T08:28:24.491Z,996.64
2018-07-30T08:29:24.515Z,996.65
2018-07-30T08:30:24.557Z,996.63
2018-07-30T08:31:24.600Z,996.67
2018-07-30T08:32:24.639Z,996.66
2018-07-30T08:33:24.681Z,996.67
2018-07-30T08:34:24.723Z,996.65
2018-07-30T08:35:24.765Z,996.66
2018-07-30T08:36:24.807Z,996.69
2018-07-30T08:37:24.852Z,996.64
2018-07-30T08:38:24.892Z,996.65
2018-07-30T08:39:24.935Z,996.67
2018-07-30T08:40:24.975Z,996.66
2018-07-30T08:41:25.018Z,996.68
2018-07-30T08:42:25.060Z,996.70
2018-07-30T08:43:25.102Z,996.71
2018-07-30T08:44:25.143Z,996.68
2018-07-30T08:45:25.188Z,996.69
2018-07-30T08:46:25.231Z,996.70
2018-07-30T08:47:25.270Z,996.72
2018-07-30T08:48:25.313Z,996.74
2018-07-30T08:49:25.374Z,996.71
2018-07-30T08:50:25.396Z,996.71
2018-07-30T08:51:25.440Z,996.69
2018-07-30T08:52:25.480Z,996.64
2018-07-30T08:53:25.526Z,996.62
2018-07-30T08:54:25.566Z,996.65
2018-07-30T08:55:25.609Z,996.67
2018-07-30T08:56:25.706Z,996.69
2018-07-30T08:57:25.696Z,996.65
2018-07-30T08:58:25.737Z,996.71
2018-07-30T08:59:25.779Z,996.68
2018-07-30T09:00:25.822Z,996.68
2018-07-30T09:01:25.863Z,996.64
2018-07-30T09:02:25.908Z,996.64
2018-07-30T09:03:25.950Z,996.64
2018-07-30T09:04:25.992Z,996.64
2018-07-30T09:05:26.037Z,996.64
2018-07-30T09:06:28.701Z,996.63
2018-07-30T09:07:26.129Z,996.60
2018-07-30T09:08:26.169Z,996.63
2018-07-30T09:09:26.209Z,996.57
2018-07-30T09:10:26.251Z,996.52
2018-07-30T09:11:26.296Z,996.55
2018-07-30T09:12:26.348Z,996.54
2018-07-30T09:13:26.382Z,996.53
2018-07-30T09:14:26.425Z,996.53
2018-07-30T09:15:26.470Z,996.54
2018-07-30T09:16:26.512Z,996.49
2018-07-30T09:17:26.555Z,996.48
2018-07-30T09:18:26.603Z,996.50
2018-07-30T09:19:26.643Z,996.49
2018-07-30T09:20:26.685Z,996.50
2018-07-30T09:21:26.732Z,996.48
2018-07-30T09:22:26.772Z,996.43
2018-07-30T09:23:26.818Z,996.43
2018-07-30T09:24:26.863Z,996.36
2018-07-30T09:25:26.905Z,996.32
2018-07-30T09:26:26.979Z,996.32
2018-07-30T09:27:27.002Z,996.31
2018-07-30T09:28:27.036Z,996.29
2018-07-30T09:29:27.079Z,996.30
2018-07-30T09:30:27.124Z,996.30
2018-07-30T09:31:27.168Z,996.31
2018-07-30T09:32:27.212Z,996.28
2018-07-30T09:33:27.255Z,996.31
2018-07-30T09:34:27.300Z,996.28
2018-07-30T09:35:27.344Z,996.32
2018-07-30T09:36:27.389Z,996.34
2018-07-30T09:37:27.436Z,996.30
2018-07-30T09:38:27.477Z,996.32
2018-07-30T09:39:27.563Z,996.28
2018-07-30T09:40:27.568Z,996.24
2018-07-30T09:41:27.611Z,996.24
2018-07-30T09:42:27.655Z,996.23
2018-07-30T09:43:27.705Z,996.20
2018-07-30T09:44:27.762Z,996.20
2018-07-30T09:45:27.789Z,996.22
2018-07-30T09:46:27.836Z,996.22
2018-07-30T09:47:27.879Z,996.23
2018-07-30T09:48:27.925Z,996.22
2018-07-30T09:49:27.974Z,996.19
2018-07-30T09:50:28.084Z,996.22
2018-07-30T09:52:28.104Z,996.23
2018-07-30T09:53:28.147Z,996.24
2018-07-30T09:54:28.192Z,996.25
2018-07-30T09:55:28.240Z,996.19
2018-07-30T09:56:28.283Z,996.13
2018-07-30T09:57:28.328Z,996.17
2018-07-30T09:58:28.373Z,996.15
2018-07-30T09:59:28.424Z,996.13
2018-07-30T10:00:28.462Z,996.17
2018-07-30T10:01:28.507Z,996.19
2018-07-30T10:02:28.553Z,996.14
2018-07-30T10:03:28.600Z,996.14
2018-07-30T10:04:28.644Z,996.12
2018-07-30T10:05:28.695Z,996.14
2018-07-30T10:06:28.735Z,996.12
2018-07-30T10:07:28.841Z,996.17
2018-07-30T10:08:28.829Z,996.11
2018-07-30T10:09:28.871Z,996.14
2018-07-30T10:10:28.916Z,996.12
2018-07-30T10:11:29.000Z,996.16
2018-07-30T10:12:29.006Z,996.10
2018-07-30T10:13:29.056Z,996.11
2018-07-30T10:14:32.132Z,996.15
2018-07-30T10:15:29.143Z,996.10
2018-07-30T10:16:29.191Z,996.10
2018-07-30T10:17:29.261Z,996.08
2018-07-30T10:18:29.281Z,996.17
2018-07-30T10:19:29.327Z,996.19
2018-07-30T10:20:29.374Z,996.15
2018-07-30T10:21:29.417Z,996.20
2018-07-30T10:22:29.464Z,996.19
2018-07-30T10:23:29.514Z,996.22
2018-07-30T10:24:29.555Z,996.29
2018-07-30T10:25:29.603Z,996.30
2018-07-30T10:26:29.653Z,996.32
2018-07-30T10:27:29.700Z,996.27
2018-07-30T10:28:29.747Z,996.28
2018-07-30T10:29:29.796Z,996.28
2018-07-30T10:30:29.869Z,996.33
2018-07-30T10:31:32.517Z,996.33
2018-07-30T10:32:29.944Z,996.37
2018-07-30T10:33:29.999Z,996.44
2018-07-30T10:34:30.060Z,996.51
2018-07-30T10:35:30.098Z,996.64
2018-07-30T10:36:30.149Z,996.72
2018-07-30T10:37:30.201Z,996.82
2018-07-30T10:38:30.254Z,996.77
2018-07-30T10:39:30.305Z,996.88
2018-07-30T10:40:30.360Z,996.87
2018-07-30T10:41:30.415Z,996.78
2018-07-30T10:42:30.465Z,996.80
2018-07-30T10:43:30.519Z,996.83
2018-07-30T10:44:31.587Z,996.83
2018-07-30T10:45:30.852Z,996.87
2018-07-30T10:46:30.681Z,996.75
2018-07-30T10:47:33.360Z,996.83
2018-07-30T10:48:31.196Z,996.80
2018-07-30T10:49:30.844Z,996.79
2018-07-30T10:50:30.901Z,996.81
2018-07-30T10:51:31.182Z,996.80
2018-07-30T10:52:31.020Z,996.80
2018-07-30T10:53:31.069Z,996.81
2018-07-30T10:54:31.124Z,996.83
2018-07-30T10:55:31.180Z,996.80
2018-07-30T10:56:31.235Z,996.81
2018-07-30T10:57:31.292Z,996.78
2018-07-30T10:58:31.369Z,996.81
2018-07-30T11:00:14.299Z,996.77
2018-07-30T11:01:14.029Z,996.78
2018-07-30T11:02:14.818Z,996.83
2018-07-30T11:03:14.143Z,996.80
2018-07-30T11:04:14.199Z,996.82
2018-07-30T11:05:14.257Z,996.78
2018-07-30T11:06:14.340Z,996.78
2018-07-30T11:07:14.371Z,996.75
2018-07-30T11:08:14.451Z,996.75
2018-07-30T11:09:14.485Z,996.76
2018-07-30T11:10:14.541Z,996.75
2018-07-30T11:11:14.599Z,996.75
2018-07-30T11:12:14.655Z,996.79
2018-07-30T11:13:14.714Z,996.84
2018-07-30T11:14:14.773Z,996.85
2018-07-30T11:15:14.829Z,996.86
2018-07-30T11:16:14.886Z,996.83
2018-07-30T11:17:14.943Z,996.82
2018-07-30T11:18:15.001Z,996.86
2018-07-30T11:19:15.060Z,996.78
2018-07-30T11:20:15.117Z,996.86
2018-07-30T11:21:15.175Z,996.79
2018-07-30T11:22:15.234Z,996.83
2018-07-30T11:23:15.291Z,996.80
2018-07-30T11:24:15.353Z,996.79
2018-07-30T11:25:15.450Z,996.76
2018-07-30T11:26:15.466Z,996.80
2018-07-30T11:27:15.523Z,996.80
2018-07-30T11:28:15.590Z,996.79
2018-07-30T11:29:15.640Z,996.77
2018-07-30T11:30:15.699Z,996.80
2018-07-30T11:31:15.757Z,996.78
2018-07-30T11:32:15.817Z,996.75
2018-07-30T11:33:15.874Z,996.75
2018-07-30T11:34:15.932Z,996.75
2018-07-30T11:35:15.991Z,996.73
2018-07-30T11:36:16.049Z,996.75
2018-07-30T11:37:16.108Z,996.69
2018-07-30T11:38:16.168Z,996.69
2018-07-30T11:39:16.226Z,996.69
2018-07-30T11:40:16.286Z,996.68
2018-07-30T11:41:16.348Z,996.68
2018-07-30T11:42:16.403Z,996.68
2018-07-30T11:43:16.463Z,996.70
2018-07-30T11:44:16.523Z,996.68
2018-07-30T11:45:16.581Z,996.67
2018-07-30T11:46:16.642Z,996.70
2018-07-30T11:47:16.700Z,996.68
2018-07-30T11:48:16.766Z,996.73
2018-07-30T11:49:16.823Z,996.68
2018-07-30T11:50:16.880Z,996.73
2018-07-30T11:51:16.940Z,996.72
2018-07-30T11:52:16.999Z,996.70
2018-07-30T11:53:17.058Z,996.70
2018-07-30T11:54:17.159Z,996.69
2018-07-30T11:55:17.178Z,996.70
2018-07-30T11:56:17.238Z,996.66
2018-07-30T11:57:17.298Z,996.67
2018-07-30T11:58:17.358Z,996.64
2018-07-30T11:59:17.418Z,996.72
2018-07-30T12:00:17.478Z,996.69
2018-07-30T12:01:17.550Z,996.67
2018-07-30T12:02:17.597Z,996.72
2018-07-30T12:03:17.654Z,996.65
2018-07-30T12:04:17.718Z,996.62
2018-07-30T12:05:17.776Z,996.70
2018-07-30T12:06:17.834Z,996.68
2018-07-30T12:07:17.895Z,996.70
2018-07-30T12:08:17.955Z,996.72
2018-07-30T12:09:18.014Z,996.70
2018-07-30T12:10:18.078Z,996.66
2018-07-30T12:11:18.135Z,996.73
2018-07-30T12:12:18.194Z,996.71
2018-07-30T12:13:18.254Z,996.74
2018-07-30T12:14:18.315Z,996.80
2018-07-30T12:15:18.373Z,996.75
2018-07-30T12:16:18.435Z,996.76
2018-07-30T12:17:18.500Z,996.76
2018-07-30T12:18:18.553Z,996.72
2018-07-30T12:19:18.629Z,996.71
2018-07-30T12:20:18.672Z,996.68
2018-07-30T12:21:18.731Z,996.67
2018-07-30T12:22:18.791Z,996.65
2018-07-30T12:23:18.850Z,996.70
2018-07-30T12:24:18.909Z,996.66
2018-07-30T12:25:18.969Z,996.66
2018-07-30T12:26:19.029Z,996.62
2018-07-30T12:27:19.087Z,996.66
2018-07-30T12:28:19.148Z,996.58
2018-07-30T12:29:19.226Z,996.68
2018-07-30T12:30:19.342Z,996.68
2018-07-30T12:31:19.326Z,996.65
2018-07-30T12:32:19.391Z,996.63
2018-07-30T12:33:19.446Z,996.68
2018-07-30T12:34:19.505Z,996.61
2018-07-30T12:35:19.564Z,996.60
2018-07-30T12:36:19.638Z,996.61
2018-07-30T12:37:19.684Z,996.63
2018-07-30T12:38:19.743Z,996.66
2018-07-30T12:39:19.802Z,996.62
2018-07-30T12:40:19.863Z,996.64
2018-07-30T12:41:19.921Z,996.63
2018-07-30T12:42:20.068Z,996.61
2018-07-30T12:43:20.041Z,996.58
2018-07-30T12:44:20.102Z,996.58
2018-07-30T12:45:20.161Z,996.59
2018-07-30T12:46:20.220Z,996.59
2018-07-30T12:47:20.280Z,996.62
2018-07-30T12:48:20.344Z,996.58
2018-07-30T12:49:20.402Z,996.56
2018-07-30T12:50:20.466Z,996.56
2018-07-30T12:51:20.523Z,996.59
2018-07-30T12:52:20.598Z,996.59
2018-07-30T12:53:20.641Z,996.54
2018-07-30T12:54:20.699Z,996.52